Time;durP1;ratioP1;P1;durP2;ratioP2;P2;SDS_P1;SDS_P2;PMS_P1;PMS_P2;Temp;Humidity;BMP_temperature;BMP_pressure;BME280_temperature;BME280_humidity;BME280_pressure;Samples;Min_cycle;Max_cycle;Signal;HPM_P1;HPM_P2
2023/09/14 00:01:45;;;;;;;1.70;1.60;;;17.00;99.90;;;;;;5011481;28;20913;-65
2023/09/14 00:04:11;;;;;;;2.70;1.90;;;17.00;99.90;;;;;;5011884;28;20526;-64
2023/09/14 00:06:38;;;;;;;2.13;1.83;;;17.00;99.90;;;;;;5011263;28;20451;-65
2023/09/14 00:09:05;;;;;;;2.33;2.13;;;17.00;99.90;;;;;;5010830;28;20498;-64
2023/09/14 00:11:32;;;;;;;2.63;1.80;;;16.90;99.90;;;;;;5010725;28;20458;-64
2023/09/14 00:13:59;;;;;;;3.03;1.43;;;16.90;99.90;;;;;;5010504;28;20453;-64
2023/09/14 00:16:25;;;;;;;4.00;3.30;;;16.80;99.90;;;;;;5010435;28;20527;-64
2023/09/14 00:18:54;;;;;;;3.83;1.90;;;16.80;99.90;;;;;;5010383;28;20472;-64
2023/09/14 00:21:21;;;;;;;3.70;2.50;;;16.70;99.90;;;;;;5010613;28;20491;-64
2023/09/14 00:23:48;;;;;;;1.67;1.57;;;16.60;99.90;;;;;;5010708;28;20442;-64
2023/09/14 00:26:15;;;;;;;2.23;2.03;;;16.50;99.90;;;;;;5010189;28;20827;-64
2023/09/14 00:28:42;;;;;;;3.40;1.77;;;16.50;99.90;;;;;;5010395;28;20507;-64
2023/09/14 00:31:09;;;;;;;2.10;1.70;;;16.40;99.90;;;;;;5010783;28;20443;-64
2023/09/14 00:33:35;;;;;;;2.10;1.90;;;16.30;99.90;;;;;;5013880;28;20954;-64
2023/09/14 00:36:04;;;;;;;1.53;1.43;;;16.20;99.90;;;;;;5014102;28;20447;-64
2023/09/14 00:38:30;;;;;;;2.70;1.87;;;16.10;99.90;;;;;;5014055;28;20462;-64
2023/09/14 00:40:57;;;;;;;3.93;2.20;;;16.10;99.90;;;;;;5013980;28;20489;-64
2023/09/14 00:43:24;;;;;;;6.97;2.30;;;16.00;99.90;;;;;;5013967;28;20451;-64
2023/09/14 00:45:51;;;;;;;1.90;1.80;;;15.90;99.90;;;;;;5013836;28;20450;-64
2023/09/14 00:48:19;;;;;;;2.43;2.23;;;15.90;99.90;;;;;;5013733;28;20557;-64
2023/09/14 00:50:47;;;;;;;3.53;2.27;;;15.80;99.90;;;;;;5013926;28;20446;-64
2023/09/14 00:53:17;;;;;;;1.97;1.87;;;15.80;99.90;;;;;;5013767;28;20456;-64
2023/09/14 00:55:45;;;;;;;2.40;2.00;;;15.80;99.90;;;;;;5013372;28;20452;-64
2023/09/14 00:58:15;;;;;;;2.30;2.20;;;15.80;99.90;;;;;;5013750;28;20558;-64
2023/09/14 01:00:43;;;;;;;2.83;2.13;;;15.80;99.90;;;;;;5013888;28;20455;-64
2023/09/14 01:03:11;;;;;;;2.10;1.90;;;15.80;99.90;;;;;;5013587;28;20540;-64
2023/09/14 01:05:40;;;;;;;1.60;1.50;;;15.80;99.90;;;;;;5013158;28;20451;-64
2023/09/14 01:08:07;;;;;;;2.27;1.70;;;15.80;99.90;;;;;;5013382;28;20449;-64
2023/09/14 01:10:35;;;;;;;2.93;2.23;;;15.80;99.90;;;;;;5013638;28;20458;-64
2023/09/14 01:13:02;;;;;;;2.40;1.97;;;15.80;99.90;;;;;;5013533;28;20856;-64
2023/09/14 01:15:33;;;;;;;2.43;2.23;;;15.70;99.90;;;;;;5013080;28;20526;-64
2023/09/14 01:18:07;;;;;;;2.33;2.13;;;15.70;99.90;;;;;;5013317;28;20814;-64
2023/09/14 01:20:47;;;;;;;2.77;1.80;;;15.60;99.90;;;;;;5013139;28;20541;-64
2023/09/14 01:23:29;;;;;;;2.13;1.90;;;15.60;99.90;;;;;;5013282;28;20486;-64
2023/09/14 01:25:57;;;;;;;3.73;2.97;;;15.50;99.90;;;;;;5012980;28;20818;-64
2023/09/14 01:28:24;;;;;;;2.70;2.00;;;15.50;99.90;;;;;;5012948;28;20489;-63
2023/09/14 01:30:51;;;;;;;2.47;2.27;;;15.40;99.90;;;;;;5013036;28;20442;-64
2023/09/14 01:33:20;;;;;;;3.30;2.13;;;15.40;99.90;;;;;;5012750;28;20447;-64
2023/09/14 01:35:50;;;;;;;2.37;2.17;;;15.40;99.90;;;;;;5012749;28;20449;-64
2023/09/14 01:38:18;;;;;;;2.30;1.90;;;15.30;99.90;;;;;;5013045;28;20560;-64
2023/09/14 01:40:47;;;;;;;3.53;3.23;;;15.20;99.90;;;;;;5012960;28;20496;-64
2023/09/14 01:43:17;;;;;;;2.10;1.90;;;15.10;99.90;;;;;;5011789;28;20573;-65
2023/09/14 01:45:44;;;;;;;2.90;2.70;;;15.10;99.90;;;;;;5012458;28;20447;-64
2023/09/14 01:48:15;;;;;;;2.07;1.87;;;15.00;99.90;;;;;;5012858;28;20458;-64
2023/09/14 01:50:42;;;;;;;2.87;2.10;;;15.00;99.90;;;;;;5012758;28;20455;-64
2023/09/14 01:53:09;;;;;;;2.10;1.90;;;14.90;99.90;;;;;;5012581;28;20453;-64
2023/09/14 01:55:36;;;;;;;3.53;3.33;;;14.80;99.90;;;;;;5012331;28;20451;-63
2023/09/14 01:58:03;;;;;;;3.40;3.00;;;14.80;99.90;;;;;;5012398;28;21033;-64
2023/09/14 02:00:32;;;;;;;2.50;2.13;;;14.70;99.90;;;;;;5012460;28;20880;-64
2023/09/14 02:02:59;;;;;;;2.00;1.90;;;14.60;99.90;;;;;;5012346;28;20545;-64
2023/09/14 02:05:26;;;;;;;2.67;2.43;;;14.60;99.90;;;;;;5012211;28;20446;-64
2023/09/14 02:07:52;;;;;;;3.87;2.60;;;14.50;99.90;;;;;;5012232;28;20951;-64
2023/09/14 02:10:21;;;;;;;2.70;2.50;;;14.50;99.90;;;;;;5012524;28;20451;-64
2023/09/14 02:12:48;;;;;;;2.33;2.13;;;14.50;99.90;;;;;;5012272;28;20455;-64
2023/09/14 02:15:15;;;;;;;2.87;2.60;;;14.40;99.90;;;;;;5012135;28;20452;-64
2023/09/14 02:17:43;;;;;;;4.27;2.77;;;14.40;99.90;;;;;;5012416;28;20454;-64
2023/09/14 02:20:11;;;;;;;2.17;2.07;;;14.30;99.90;;;;;;5012153;28;20462;-64
2023/09/14 02:22:38;;;;;;;4.70;2.33;;;14.30;99.90;;;;;;5012034;28;20489;-64
2023/09/14 02:25:06;;;;;;;3.50;3.20;;;14.20;99.90;;;;;;5011712;28;20450;-64
2023/09/14 02:27:33;;;;;;;2.53;2.20;;;14.20;99.90;;;;;;5012295;28;20537;-64
2023/09/14 02:29:59;;;;;;;2.70;2.40;;;14.10;99.90;;;;;;5011748;28;20574;-64
2023/09/14 02:32:26;;;;;;;2.13;2.03;;;14.10;99.90;;;;;;5011989;28;20967;-64
2023/09/14 02:34:54;;;;;;;2.57;2.37;;;14.10;99.90;;;;;;5011771;28;20456;-64
2023/09/14 02:37:21;;;;;;;1.87;1.77;;;14.00;99.90;;;;;;5012007;28;20835;-64
2023/09/14 02:39:48;;;;;;;2.13;1.97;;;14.00;99.90;;;;;;5011686;28;20478;-64
2023/09/14 02:42:15;;;;;;;2.80;2.20;;;14.00;99.90;;;;;;5011754;28;21097;-64
2023/09/14 02:44:42;;;;;;;2.43;2.00;;;13.90;99.90;;;;;;5011826;28;20460;-64
2023/09/14 02:47:08;;;;;;;1.93;1.77;;;13.80;99.90;;;;;;5011979;28;20480;-64
2023/09/14 02:49:35;;;;;;;3.80;2.40;;;13.90;99.90;;;;;;5011807;28;20475;-64
2023/09/14 02:52:04;;;;;;;2.30;2.10;;;13.80;99.90;;;;;;5011898;28;20442;-64
2023/09/14 02:54:31;;;;;;;2.97;2.77;;;13.80;99.90;;;;;;5011376;28;21134;-64
2023/09/14 02:56:58;;;;;;;2.37;2.27;;;13.80;99.90;;;;;;5011453;28;20449;-64
2023/09/14 02:59:25;;;;;;;2.87;2.30;;;13.80;99.90;;;;;;5011590;28;20476;-64
2023/09/14 03:01:51;;;;;;;3.13;2.30;;;13.80;99.90;;;;;;5011420;28;20497;-64
2023/09/14 03:04:17;;;;;;;3.03;2.60;;;13.80;99.90;;;;;;5011342;28;20533;-64
2023/09/14 03:06:44;;;;;;;2.10;1.97;;;13.80;99.90;;;;;;5011125;28;20534;-64
2023/09/14 03:09:12;;;;;;;4.70;2.63;;;13.80;99.90;;;;;;5011415;28;20233;-64
2023/09/14 03:11:39;;;;;;;3.53;3.23;;;13.80;99.90;;;;;;5011545;28;20459;-64
2023/09/14 03:14:06;;;;;;;3.87;2.80;;;13.80;99.90;;;;;;5011386;28;20542;-64
2023/09/14 03:16:32;;;;;;;2.70;2.50;;;13.80;99.90;;;;;;5009938;28;20461;-64
2023/09/14 03:18:59;;;;;;;2.40;2.20;;;13.90;99.90;;;;;;5010995;28;20472;-64
2023/09/14 03:21:28;;;;;;;2.30;1.77;;;13.90;99.90;;;;;;5011236;28;20449;-64
2023/09/14 03:23:55;;;;;;;4.03;2.50;;;13.90;99.90;;;;;;5011175;28;20539;-64
2023/09/14 03:26:25;;;;;;;3.70;2.60;;;14.00;99.90;;;;;;5010917;28;20528;-64
2023/09/14 03:28:52;;;;;;;2.80;2.60;;;14.00;99.90;;;;;;5010947;28;20482;-64
2023/09/14 03:31:18;;;;;;;2.50;2.30;;;14.00;99.90;;;;;;5010957;28;20473;-64
2023/09/14 03:33:47;;;;;;;1.77;1.67;;;14.00;99.90;;;;;;5011163;28;20454;-64
2023/09/14 03:36:14;;;;;;;3.33;2.20;;;14.00;99.90;;;;;;5011014;28;20953;-64
2023/09/14 03:38:41;;;;;;;3.30;2.40;;;14.00;99.90;;;;;;5019039;28;20466;-64
2023/09/14 03:41:08;;;;;;;3.40;3.10;;;14.00;99.90;;;;;;5030672;28;20532;-64
2023/09/14 03:43:36;;;;;;;2.87;2.67;;;14.00;99.90;;;;;;5030544;28;20497;-64
2023/09/14 03:46:02;;;;;;;3.70;2.20;;;14.00;99.90;;;;;;5030308;28;20442;-64
2023/09/14 03:48:29;;;;;;;6.20;2.80;;;14.00;99.90;;;;;;5030746;28;20470;-64
2023/09/14 03:50:58;;;;;;;2.87;2.10;;;14.00;99.90;;;;;;5030768;28;20533;-64
2023/09/14 03:53:26;;;;;;;2.83;2.27;;;13.90;99.90;;;;;;5030677;28;20480;-64
2023/09/14 03:55:53;;;;;;;2.30;2.20;;;13.90;99.90;;;;;;5030335;28;20445;-64
2023/09/14 03:58:20;;;;;;;3.17;2.87;;;13.90;99.90;;;;;;5030349;28;20480;-64
2023/09/14 04:00:48;;;;;;;3.93;2.40;;;13.90;99.90;;;;;;5030647;28;21025;-63
2023/09/14 04:03:17;;;;;;;3.27;2.97;;;13.90;99.90;;;;;;5030322;28;20495;-64
2023/09/14 04:05:44;;;;;;;2.73;2.53;;;13.80;99.90;;;;;;5030352;28;20533;-63
2023/09/14 04:08:11;;;;;;;2.53;2.10;;;13.80;99.90;;;;;;5033521;28;20465;-64
2023/09/14 04:10:38;;;;;;;2.03;1.93;;;13.80;99.90;;;;;;5034209;28;20449;-64
2023/09/14 04:13:29;;;;;;;1.80;1.70;;;13.70;99.90;;;;;;5034124;28;20444;-64
2023/09/14 04:15:58;;;;;;;2.53;2.27;;;13.70;99.90;;;;;;5033904;28;20456;-64
2023/09/14 04:18:25;;;;;;;4.53;2.93;;;13.70;99.90;;;;;;5034036;28;20565;-64
2023/09/14 04:20:53;;;;;;;3.70;2.27;;;13.70;99.90;;;;;;5034065;28;20448;-64
2023/09/14 04:23:20;;;;;;;2.37;2.10;;;13.60;99.90;;;;;;5033868;28;20579;-64
2023/09/14 04:25:47;;;;;;;2.50;2.30;;;13.60;99.90;;;;;;5033978;28;20540;-64
2023/09/14 04:28:15;;;;;;;3.30;2.33;;;13.60;99.90;;;;;;5033724;28;20564;-64
2023/09/14 04:30:44;;;;;;;2.53;2.33;;;13.50;99.90;;;;;;5033976;28;20447;-64
2023/09/14 04:33:13;;;;;;;5.23;2.73;;;13.50;99.90;;;;;;5033975;28;20985;-63
2023/09/14 04:35:40;;;;;;;2.50;2.30;;;13.40;99.90;;;;;;5033245;28;20443;-64
2023/09/14 04:38:07;;;;;;;2.53;2.33;;;13.40;99.90;;;;;;5033969;28;20449;-64
2023/09/14 04:40:37;;;;;;;2.53;2.33;;;13.40;99.90;;;;;;5033815;28;20460;-64
2023/09/14 04:43:04;;;;;;;2.97;2.37;;;13.30;99.90;;;;;;5033759;28;20570;-64
2023/09/14 04:45:31;;;;;;;2.93;2.70;;;13.30;99.90;;;;;;5033287;28;21167;-64
2023/09/14 04:47:58;;;;;;;2.83;2.63;;;13.20;99.90;;;;;;5033540;28;20451;-64
2023/09/14 04:50:26;;;;;;;2.80;2.50;;;13.20;99.90;;;;;;5033389;28;20564;-64
2023/09/14 04:52:53;;;;;;;2.53;2.37;;;13.10;99.90;;;;;;5033725;28;20496;-64
2023/09/14 04:55:19;;;;;;;4.80;3.00;;;13.10;99.90;;;;;;5033104;28;20455;-64
2023/09/14 04:57:46;;;;;;;2.47;1.93;;;13.00;99.90;;;;;;5033683;28;20453;-64
2023/09/14 05:00:14;;;;;;;3.30;2.60;;;13.00;99.90;;;;;;5033356;28;20475;-64
2023/09/14 05:02:41;;;;;;;2.70;2.50;;;13.00;99.90;;;;;;5033384;28;20485;-64
2023/09/14 05:05:10;;;;;;;3.60;3.30;;;13.00;99.90;;;;;;5033006;28;20958;-64
2023/09/14 05:07:39;;;;;;;4.23;2.60;;;12.90;99.90;;;;;;5033314;28;20883;-64
2023/09/14 05:10:07;;;;;;;3.13;2.80;;;12.90;99.90;;;;;;5033318;28;20475;-64
2023/09/14 05:12:34;;;;;;;2.50;2.30;;;12.80;99.90;;;;;;5033289;28;20834;-64
2023/09/14 05:15:02;;;;;;;3.47;2.80;;;12.80;99.90;;;;;;5032688;28;20524;-64
2023/09/14 05:17:29;;;;;;;2.80;2.43;;;12.80;99.90;;;;;;5032963;28;20473;-64
2023/09/14 05:19:56;;;;;;;2.50;2.30;;;12.70;99.90;;;;;;5032967;28;20469;-64
2023/09/14 05:22:25;;;;;;;3.50;2.57;;;12.80;99.90;;;;;;5033014;28;20887;-64
2023/09/14 05:24:53;;;;;;;2.93;2.73;;;12.70;99.90;;;;;;5032594;28;20537;-64
2023/09/14 05:27:20;;;;;;;3.77;2.57;;;12.70;99.90;;;;;;5032914;28;20895;-63
2023/09/14 05:29:47;;;;;;;3.50;3.20;;;12.70;99.90;;;;;;5032518;28;20477;-64
2023/09/14 05:32:14;;;;;;;3.00;2.73;;;12.60;99.90;;;;;;5032922;28;20445;-64
2023/09/14 05:34:40;;;;;;;3.77;2.67;;;12.60;99.90;;;;;;5032506;28;20540;-64
2023/09/14 05:37:07;;;;;;;2.77;2.57;;;12.60;99.90;;;;;;5031350;28;20990;-64
2023/09/14 05:39:34;;;;;;;3.27;2.60;;;12.60;99.90;;;;;;5032628;28;20469;-64
2023/09/14 05:42:03;;;;;;;4.53;3.23;;;12.60;99.90;;;;;;5032638;28;21073;-64
2023/09/14 05:44:30;;;;;;;3.20;3.00;;;12.70;99.90;;;;;;5032264;28;20486;-64
2023/09/14 05:46:56;;;;;;;3.00;2.80;;;12.70;99.90;;;;;;5032428;28;20540;-64
2023/09/14 05:49:23;;;;;;;4.00;3.23;;;12.80;99.90;;;;;;5032265;28;20557;-64
2023/09/14 05:51:50;;;;;;;5.60;4.03;;;12.80;99.90;;;;;;5032459;28;20451;-64
2023/09/14 05:54:17;;;;;;;3.17;2.80;;;12.80;99.90;;;;;;5032500;28;20843;-64
2023/09/14 05:56:43;;;;;;;3.60;2.97;;;12.90;99.90;;;;;;5032030;28;20451;-65
2023/09/14 05:59:12;;;;;;;3.30;3.00;;;13.00;99.90;;;;;;5032062;28;21047;-64
2023/09/14 06:01:39;;;;;;;3.00;2.80;;;13.10;99.90;;;;;;5032227;28;20540;-64
2023/09/14 06:04:06;;;;;;;4.00;2.97;;;13.10;99.90;;;;;;5032229;28;20491;-65
2023/09/14 06:06:33;;;;;;;3.70;3.40;;;13.20;99.90;;;;;;5032336;28;20528;-64
2023/09/14 06:09:00;;;;;;;2.60;2.40;;;13.20;99.90;;;;;;5032113;28;20484;-64
2023/09/14 06:11:27;;;;;;;6.90;3.37;;;13.30;99.90;;;;;;5031757;28;20445;-64
2023/09/14 06:13:54;;;;;;;3.27;3.03;;;13.40;99.90;;;;;;5031914;28;20457;-64
2023/09/14 06:16:23;;;;;;;5.43;3.50;;;13.40;99.90;;;;;;5031841;28;20448;-64
2023/09/14 06:18:49;;;;;;;3.77;3.13;;;13.50;99.90;;;;;;5031839;28;20555;-64
2023/09/14 06:21:18;;;;;;;3.93;3.43;;;13.60;99.90;;;;;;5032090;28;20459;-64
2023/09/14 06:23:46;;;;;;;4.00;3.50;;;13.70;99.90;;;;;;5031795;28;20576;-64
2023/09/14 06:26:13;;;;;;;4.23;3.83;;;13.70;99.90;;;;;;5031376;28;20532;-64
2023/09/14 06:28:40;;;;;;;4.80;3.57;;;13.70;99.90;;;;;;5031556;28;20477;-64
2023/09/14 06:31:06;;;;;;;3.47;3.17;;;13.80;99.90;;;;;;5031361;28;20447;-64
2023/09/14 06:33:35;;;;;;;5.67;3.47;;;13.90;99.90;;;;;;5031707;28;20931;-64
2023/09/14 06:36:01;;;;;;;2.93;2.70;;;14.00;99.90;;;;;;5031323;28;20451;-64
2023/09/14 06:38:28;;;;;;;3.17;2.87;;;14.00;99.90;;;;;;5031492;28;20560;-64
2023/09/14 06:40:56;;;;;;;7.40;4.10;;;14.10;99.90;;;;;;5031327;28;20536;-64
2023/09/14 06:43:23;;;;;;;3.87;2.93;;;14.10;99.90;;;;;;5031561;28;20935;-64
2023/09/14 06:45:50;;;;;;;20.07;5.00;;;14.10;99.90;;;;;;5031150;28;20453;-64
2023/09/14 06:48:16;;;;;;;6.57;3.83;;;14.30;99.90;;;;;;5031366;28;20481;-64
2023/09/14 06:50:46;;;;;;;7.10;3.80;;;14.30;99.90;;;;;;5031196;28;21043;-64
2023/09/14 06:53:13;;;;;;;9.00;3.70;;;14.40;99.90;;;;;;5031004;28;20488;-64
2023/09/14 06:55:40;;;;;;;5.40;3.37;;;14.40;99.90;;;;;;5000403;28;20446;-65
2023/09/14 06:58:08;;;;;;;13.83;6.40;;;14.50;99.90;;;;;;4991628;28;20476;-64
2023/09/14 07:00:35;;;;;;;45.83;13.37;;;14.50;99.90;;;;;;4991572;28;20464;-64
2023/09/14 07:03:03;;;;;;;8.00;3.77;;;14.60;99.90;;;;;;4991421;28;21020;-64
2023/09/14 07:05:30;;;;;;;5.50;3.13;;;14.60;99.90;;;;;;4991113;28;20456;-64
2023/09/14 07:07:58;;;;;;;4.33;3.80;;;14.70;99.90;;;;;;4991372;28;20456;-64
2023/09/14 07:10:25;;;;;;;3.20;3.00;;;14.80;99.90;;;;;;4991456;28;20451;-65
2023/09/14 07:12:52;;;;;;;3.80;3.43;;;14.90;99.90;;;;;;5028551;28;20469;-64
2023/09/14 07:15:19;;;;;;;7.97;3.50;;;15.00;99.90;;;;;;5030475;28;20477;-64
2023/09/14 07:17:46;;;;;;;5.03;2.70;;;15.10;99.90;;;;;;5030775;28;20829;-65
2023/09/14 07:20:13;;;;;;;6.40;3.40;;;15.20;99.90;;;;;;5028651;28;20465;-64
2023/09/14 07:22:40;;;;;;;9.80;4.97;;;15.30;99.90;;;;;;4992750;28;20508;-64
2023/09/14 07:25:09;;;;;;;13.33;7.60;;;15.30;99.90;;;;;;5007458;28;20933;-64
2023/09/14 07:27:36;;;;;;;151.30;30.77;;;15.40;99.90;;;;;;5006283;28;20459;-64
2023/09/14 07:30:03;;;;;;;3.17;2.77;;;15.40;99.90;;;;;;4998793;28;21254;-64
2023/09/14 07:32:30;;;;;;;3.10;2.77;;;15.40;99.90;;;;;;4998885;28;20451;-64
2023/09/14 07:35:00;;;;;;;3.07;2.80;;;15.50;99.90;;;;;;5005803;28;20956;-64
2023/09/14 07:37:26;;;;;;;3.37;3.07;;;15.50;99.90;;;;;;5007014;28;20444;-64
2023/09/14 07:39:53;;;;;;;3.30;3.00;;;15.60;99.90;;;;;;4997187;28;20474;-65
2023/09/14 07:42:21;;;;;;;6.60;3.17;;;15.70;99.90;;;;;;5012307;28;20446;-65
2023/09/14 07:44:48;;;;;;;4.13;3.23;;;15.70;99.90;;;;;;5000034;28;20491;-65
2023/09/14 07:47:15;;;;;;;3.97;2.63;;;15.80;99.90;;;;;;5012051;28;20521;-64
2023/09/14 07:49:44;;;;;;;4.17;3.70;;;15.90;99.90;;;;;;5009361;28;20839;-64
2023/09/14 07:52:11;;;;;;;4.00;2.60;;;15.90;99.90;;;;;;5004162;28;20481;-64
2023/09/14 07:54:38;;;;;;;4.40;2.90;;;16.00;99.90;;;;;;5001562;28;20444;-64
2023/09/14 07:57:05;;;;;;;4.07;3.57;;;16.00;99.90;;;;;;5010518;28;20456;-64
2023/09/14 07:59:33;;;;;;;3.93;3.13;;;16.10;99.90;;;;;;4998403;28;20463;-64
2023/09/14 08:02:00;;;;;;;3.67;2.47;;;16.20;99.90;;;;;;5006383;28;20466;-64
2023/09/14 08:04:27;;;;;;;3.50;2.97;;;16.30;99.90;;;;;;5005776;28;20851;-65
2023/09/14 08:06:54;;;;;;;3.50;3.20;;;16.40;99.90;;;;;;5013714;28;20475;-64
2023/09/14 08:09:21;;;;;;;7.07;3.00;;;16.60;99.90;;;;;;4997662;28;20464;-64
2023/09/14 08:11:48;;;;;;;3.33;3.10;;;16.70;99.90;;;;;;5008142;28;20450;-65
2023/09/14 08:14:14;;;;;;;3.23;2.83;;;16.80;99.90;;;;;;5003955;28;20451;-65
2023/09/14 08:16:43;;;;;;;5.20;3.23;;;16.90;99.90;;;;;;5013592;28;20449;-65
2023/09/14 08:19:09;;;;;;;2.97;2.70;;;17.00;99.90;;;;;;4997732;28;20560;-64
2023/09/14 08:21:36;;;;;;;2.77;2.57;;;17.10;99.90;;;;;;5009446;28;20455;-65
2023/09/14 08:24:03;;;;;;;4.90;3.10;;;17.20;99.90;;;;;;5002272;28;20507;-65
2023/09/14 08:26:30;;;;;;;3.43;3.13;;;17.30;99.90;;;;;;5013350;28;20454;-65
2023/09/14 08:28:57;;;;;;;3.77;2.40;;;17.40;99.90;;;;;;4998011;28;20478;-65
2023/09/14 08:31:24;;;;;;;5.53;2.77;;;17.40;99.90;;;;;;5010351;28;20445;-64
2023/09/14 08:33:52;;;;;;;6.20;2.70;;;17.50;99.90;;;;;;5000322;28;21256;-65
2023/09/14 08:36:19;;;;;;;2.60;2.40;;;17.60;99.90;;;;;;5003256;28;20976;-65
2023/09/14 08:38:46;;;;;;;7.83;3.80;;;17.70;99.90;;;;;;5007589;28;20548;-64
2023/09/14 08:41:22;;;;;;;2.97;2.63;;;17.80;99.90;;;;;;4997044;28;20453;-65
2023/09/14 08:43:49;;;;;;;3.43;2.53;;;17.80;99.90;;;;;;5007408;28;20489;-65
2023/09/14 08:46:18;;;;;;;2.37;2.20;;;17.90;99.90;;;;;;5003332;28;20438;-65
2023/09/14 08:48:47;;;;;;;3.40;2.47;;;17.90;99.90;;;;;;4999621;28;20466;-65
2023/09/14 08:51:17;;;;;;;3.13;2.20;;;18.00;99.90;;;;;;5011196;28;20525;-65
2023/09/14 08:53:44;;;;;;;2.70;2.50;;;18.00;99.90;;;;;;5007452;28;20453;-65
2023/09/14 08:56:13;;;;;;;2.83;2.60;;;18.10;99.90;;;;;;5002018;28;20536;-64
2023/09/14 08:58:41;;;;;;;3.43;3.13;;;18.20;99.90;;;;;;5012962;28;20543;-65
2023/09/14 09:01:10;;;;;;;2.70;2.50;;;18.30;99.90;;;;;;4996948;28;20456;-64
2023/09/14 09:03:37;;;;;;;3.57;2.20;;;18.30;99.90;;;;;;5008861;28;21035;-64
2023/09/14 09:06:04;;;;;;;3.27;2.77;;;18.40;99.90;;;;;;5001215;28;20480;-64
2023/09/14 09:08:32;;;;;;;3.37;2.20;;;18.40;99.90;;;;;;5012751;28;20472;-65
2023/09/14 09:11:01;;;;;;;2.27;1.87;;;18.50;99.90;;;;;;4997338;28;20513;-65
2023/09/14 09:13:33;;;;;;;4.40;3.33;;;18.60;99.90;;;;;;5009760;28;20829;-65
2023/09/14 09:16:00;;;;;;;2.40;2.00;;;18.60;99.90;;;;;;5000747;28;20453;-64
2023/09/14 09:18:27;;;;;;;2.47;2.20;;;18.60;99.90;;;;;;5001497;28;20481;-64
2023/09/14 09:20:54;;;;;;;5.40;3.83;;;18.60;99.90;;;;;;5008233;28;20446;-65
2023/09/14 09:23:21;;;;;;;3.43;2.40;;;18.60;99.90;;;;;;4994279;28;20450;-65
2023/09/14 09:25:53;;;;;;;4.30;2.60;;;18.70;99.90;;;;;;5008864;28;20472;-65
2023/09/14 09:28:20;;;;;;;2.73;2.53;;;18.80;99.90;;;;;;5011499;28;20576;-64
2023/09/14 09:33:36;;;;;;;2.93;2.63;;;18.90;99.90;;;;;;5477843;23;20508;-67
2023/09/14 09:36:15;;;;;;;2.77;2.27;;;18.90;99.90;;;;;;5038647;28;20530;-66
2023/09/14 09:38:41;;;;;;;2.33;2.13;;;19.00;99.90;;;;;;5012925;28;20532;-64
2023/09/14 09:41:11;;;;;;;2.63;2.03;;;19.10;99.90;;;;;;5032177;28;21063;-65
2023/09/14 09:43:38;;;;;;;3.10;2.23;;;19.20;99.90;;;;;;5032670;28;20465;-64
2023/09/14 09:46:14;;;;;;;2.00;1.73;;;19.20;99.90;;;;;;5032837;28;20963;-65
2023/09/14 09:48:41;;;;;;;3.03;2.30;;;19.30;99.90;;;;;;5032605;28;20492;-65
2023/09/14 09:51:08;;;;;;;1.97;1.87;;;19.40;99.90;;;;;;5037111;23;20506;-66
2023/09/14 09:53:35;;;;;;;2.40;2.20;;;19.50;99.90;;;;;;5012394;28;20891;-66
2023/09/14 09:56:02;;;;;;;2.47;2.27;;;19.50;99.90;;;;;;5012509;28;20540;-66
2023/09/14 09:58:36;;;;;;;2.80;2.50;;;19.60;99.90;;;;;;5012968;28;20442;-66
2023/09/14 10:01:03;;;;;;;2.27;1.73;;;19.50;99.90;;;;;;5012996;28;20462;-66
2023/09/14 10:03:31;;;;;;;2.90;2.10;;;19.70;99.90;;;;;;5012410;28;20446;-66
2023/09/14 10:05:57;;;;;;;1.87;1.73;;;19.70;99.90;;;;;;5011787;28;20491;-66
2023/09/14 10:08:24;;;;;;;4.43;4.23;;;19.70;99.90;;;;;;5013053;28;20464;-66
2023/09/14 10:10:52;;;;;;;3.30;2.13;;;19.70;99.50;;;;;;5012967;28;20553;-66
2023/09/14 10:13:22;;;;;;;2.47;2.27;;;19.80;99.90;;;;;;5012494;28;20450;-66
2023/09/14 10:15:51;;;;;;;14.60;5.10;;;19.90;99.40;;;;;;5012797;28;20473;-66
2023/09/14 10:18:21;;;;;;;2.30;2.10;;;20.00;99.70;;;;;;5012456;28;20520;-66
2023/09/14 10:20:50;;;;;;;2.23;2.03;;;20.00;98.70;;;;;;5012719;28;20466;-66
2023/09/14 10:23:19;;;;;;;3.17;2.17;;;20.10;99.20;;;;;;5011804;28;20448;-66
2023/09/14 10:25:49;;;;;;;2.70;2.20;;;20.10;98.90;;;;;;5012631;28;20487;-66
2023/09/14 10:28:16;;;;;;;2.10;2.00;;;20.30;99.90;;;;;;5012243;28;20451;-66
2023/09/14 10:30:44;;;;;;;2.80;2.60;;;20.40;99.90;;;;;;5012081;28;20563;-66
2023/09/14 10:33:14;;;;;;;2.13;2.00;;;20.60;99.70;;;;;;5012065;28;20472;-66
2023/09/14 10:35:41;;;;;;;3.50;2.43;;;20.60;99.10;;;;;;5012299;28;20524;-66
2023/09/14 10:38:08;;;;;;;2.43;2.23;;;20.70;98.90;;;;;;5012214;28;20458;-66
2023/09/14 10:40:36;;;;;;;2.57;2.37;;;20.80;99.60;;;;;;5012129;28;20841;-66
2023/09/14 10:43:03;;;;;;;2.30;2.10;;;20.90;98.60;;;;;;5011848;28;20452;-66
2023/09/14 10:48:20;;;;;;;2.23;2.00;;;21.10;99.00;;;;;;5001890;28;20465;-67
2023/09/14 10:50:50;;;;;;;2.47;2.27;;;21.10;98.90;;;;;;5011676;28;20475;-67
2023/09/14 10:53:16;;;;;;;6.90;2.80;;;21.20;98.00;;;;;;5011597;28;20443;-66
2023/09/14 10:55:44;;;;;;;2.93;2.40;;;21.30;99.00;;;;;;5011880;28;20495;-66
2023/09/14 10:58:12;;;;;;;7.20;2.70;;;21.40;98.50;;;;;;5011379;28;20540;-67
2023/09/14 11:00:39;;;;;;;2.60;2.40;;;21.60;99.00;;;;;;5011634;28;20845;-67
2023/09/14 11:03:07;;;;;;;2.53;2.33;;;21.70;97.90;;;;;;5011406;28;20453;-67
2023/09/14 11:05:42;;;;;;;2.37;1.83;;;21.80;97.60;;;;;;5011350;28;20530;-66
2023/09/14 11:08:09;;;;;;;2.30;2.10;;;21.90;97.00;;;;;;5011388;28;20523;-64
2023/09/14 11:10:37;;;;;;;2.43;2.00;;;22.10;97.20;;;;;;5011148;28;20988;-64
2023/09/14 11:13:34;;;;;;;2.60;2.40;;;22.10;96.50;;;;;;5011068;28;20453;-64
2023/09/14 11:16:17;;;;;;;2.03;1.93;;;22.20;96.60;;;;;;4931389;29;20487;-64
2023/09/14 11:18:56;;;;;;;2.10;1.90;;;22.30;96.70;;;;;;5001294;28;20546;-64
2023/09/14 11:21:43;;;;;;;2.40;1.90;;;22.30;96.10;;;;;;5011309;28;20477;-64
2023/09/14 11:24:11;;;;;;;2.93;2.10;;;22.30;95.50;;;;;;5010980;28;20474;-64
2023/09/14 11:26:44;;;;;;;2.50;2.30;;;22.20;95.40;;;;;;5011151;28;20449;-64
2023/09/14 11:29:12;;;;;;;2.77;2.10;;;22.10;95.90;;;;;;5010880;28;21012;-64
2023/09/14 11:31:40;;;;;;;2.10;2.00;;;22.00;95.60;;;;;;5010999;28;20452;-64
2023/09/14 11:34:12;;;;;;;2.50;2.27;;;21.90;96.30;;;;;;5010876;28;20451;-64
2023/09/14 11:36:40;;;;;;;2.10;1.90;;;21.80;96.40;;;;;;5011176;28;20492;-65
2023/09/14 11:39:13;;;;;;;2.57;2.20;;;21.70;96.40;;;;;;5010871;28;20452;-64
2023/09/14 11:41:59;;;;;;;3.87;2.50;;;21.70;96.50;;;;;;5010878;28;20447;-64
2023/09/14 11:44:29;;;;;;;2.20;2.00;;;21.80;96.80;;;;;;5010525;28;20484;-64
2023/09/14 11:46:58;;;;;;;4.40;2.63;;;21.80;96.50;;;;;;5010638;28;20492;-63
2023/09/14 11:49:29;;;;;;;1.73;1.60;;;21.90;96.00;;;;;;5010505;28;20895;-64
2023/09/14 11:51:56;;;;;;;4.10;2.53;;;22.00;96.30;;;;;;5010873;28;20484;-64
2023/09/14 11:54:29;;;;;;;5.27;3.30;;;22.20;95.60;;;;;;5010560;28;20451;-63
2023/09/14 11:57:00;;;;;;;7.60;3.40;;;22.20;94.70;;;;;;5011000;28;20453;-64
2023/09/14 11:59:30;;;;;;;2.27;2.07;;;22.10;95.70;;;;;;5010442;28;20535;-64
2023/09/14 12:01:58;;;;;;;2.37;2.17;;;22.20;96.40;;;;;;5010679;28;20874;-64
2023/09/14 12:04:29;;;;;;;3.33;2.30;;;22.30;96.10;;;;;;5010567;28;20457;-64
2023/09/14 12:06:58;;;;;;;8.47;3.10;;;22.50;95.60;;;;;;5010655;28;20986;-64
2023/09/14 12:09:40;;;;;;;5.73;3.30;;;22.60;95.70;;;;;;5010732;28;20470;-63
2023/09/14 12:12:09;;;;;;;2.40;2.20;;;22.60;95.70;;;;;;5010579;28;21072;-64
2023/09/14 12:14:40;;;;;;;2.07;1.83;;;22.70;95.50;;;;;;5010692;28;20452;-64
2023/09/14 12:17:21;;;;;;;1.97;1.57;;;22.80;95.20;;;;;;5010543;28;20454;-64
2023/09/14 12:19:53;;;;;;;1.70;1.60;;;22.90;94.10;;;;;;5010526;28;20481;-64
2023/09/14 12:22:21;;;;;;;2.10;1.90;;;22.90;94.20;;;;;;5010236;28;20956;-64
2023/09/14 12:24:50;;;;;;;3.60;2.30;;;23.00;94.40;;;;;;5010494;28;20494;-64
2023/09/14 12:27:18;;;;;;;3.43;2.37;;;23.00;94.30;;;;;;5010629;28;21144;-64
2023/09/14 12:29:46;;;;;;;2.60;2.40;;;23.10;94.30;;;;;;5013860;28;20476;-64
2023/09/14 12:32:14;;;;;;;4.87;2.83;;;23.20;94.50;;;;;;5014080;28;20883;-64
2023/09/14 12:34:41;;;;;;;3.00;2.43;;;23.20;94.20;;;;;;5014102;28;20961;-64
2023/09/14 12:37:09;;;;;;;2.03;1.93;;;23.20;93.10;;;;;;5013934;28;20446;-63
2023/09/14 12:39:36;;;;;;;1.90;1.80;;;23.10;94.00;;;;;;5013822;28;20995;-64
2023/09/14 12:42:06;;;;;;;4.90;3.17;;;22.90;93.20;;;;;;5013358;28;20463;-64
2023/09/14 12:44:32;;;;;;;2.40;2.20;;;22.80;93.90;;;;;;5013872;28;20452;-64
2023/09/14 12:46:59;;;;;;;3.70;2.70;;;22.60;94.40;;;;;;5014069;28;20531;-64
2023/09/14 12:49:26;;;;;;;2.40;2.20;;;22.70;94.70;;;;;;5012542;28;20816;-63
2023/09/14 12:51:54;;;;;;;2.00;1.90;;;22.60;94.40;;;;;;5010785;28;20508;-64
2023/09/14 12:54:26;;;;;;;4.17;2.40;;;22.60;94.80;;;;;;4998744;28;20563;-64
2023/09/14 12:56:53;;;;;;;4.00;2.80;;;22.70;94.70;;;;;;5013701;28;20544;-64